createdAt,value
2019-01-10T00:02:15.428Z,239.50
2019-01-10T00:05:19.249Z,239.47
2019-01-10T00:08:22.992Z,229.77
2019-01-10T00:11:26.703Z,207.40
2019-01-10T00:14:30.365Z,189.77
2019-01-10T00:17:34.044Z,209.13
2019-01-10T00:20:37.725Z,212.43
2019-01-10T00:23:41.373Z,218.30
2019-01-10T00:26:45.035Z,213.93
2019-01-10T00:29:48.733Z,223.97
2019-01-10T00:32:52.404Z,226.03
2019-01-10T00:35:56.089Z,214.07
2019-01-10T00:38:59.756Z,210.10
2019-01-10T00:42:03.478Z,214.57
2019-01-10T00:45:10.430Z,213.73
2019-01-10T00:48:14.090Z,221.30
2019-01-10T00:51:17.814Z,231.83
2019-01-10T00:54:21.474Z,224.60
2019-01-10T00:57:25.163Z,220.10
2019-01-10T01:00:28.851Z,213.03
2019-01-10T01:03:32.525Z,201.47
2019-01-10T01:06:36.272Z,219.57
2019-01-10T01:09:39.948Z,219.80
2019-01-10T01:12:43.642Z,234.60
2019-01-10T01:15:47.315Z,220.70
2019-01-10T01:18:50.993Z,238.60
2019-01-10T01:21:54.643Z,232.13
2019-01-10T01:24:58.312Z,231.70
2019-01-10T01:28:01.992Z,226.70
2019-01-10T01:31:05.683Z,222.67
2019-01-10T01:34:09.331Z,210.73
2019-01-10T01:37:13.053Z,214.87
2019-01-10T01:40:18.999Z,210.37
2019-01-10T01:43:22.673Z,219.43
2019-01-10T01:46:26.351Z,203.47
2019-01-10T01:49:30.008Z,214.97
2019-01-10T01:52:33.698Z,199.73
2019-01-10T01:55:37.359Z,208.73
2019-01-10T01:58:41.031Z,213.43
2019-01-10T02:01:44.769Z,235.27
2019-01-10T02:04:48.435Z,241.00
2019-01-10T02:07:52.098Z,236.43
2019-01-10T02:10:55.764Z,234.07
2019-01-10T02:13:59.480Z,222.87
2019-01-10T02:17:03.123Z,225.40
2019-01-10T02:20:09.228Z,239.70
2019-01-10T02:23:12.976Z,227.97
2019-01-10T02:26:16.636Z,234.17
2019-01-10T02:29:20.343Z,239.27
2019-01-10T02:32:24.016Z,223.63
2019-01-10T02:35:27.724Z,244.10
2019-01-10T02:38:31.384Z,241.97
2019-01-10T02:41:35.101Z,215.27
2019-01-10T02:44:38.753Z,234.73
2019-01-10T02:47:42.454Z,218.73
2019-01-10T02:50:46.178Z,207.73
2019-01-10T02:53:49.857Z,221.03
2019-01-10T02:56:53.548Z,236.87
2019-01-10T02:59:57.214Z,211.53
2019-01-10T03:03:00.913Z,235.57
2019-01-10T03:06:04.576Z,235.53
2019-01-10T03:09:09.341Z,221.77
2019-01-10T03:12:12.995Z,233.33
2019-01-10T03:15:16.694Z,223.47
2019-01-10T03:18:20.403Z,227.57
2019-01-10T03:21:24.052Z,233.40
2019-01-10T03:24:27.736Z,230.70
2019-01-10T03:27:31.404Z,228.27
2019-01-10T03:30:35.094Z,231.17
2019-01-10T03:33:38.740Z,219.17
2019-01-10T03:36:42.429Z,241.30
2019-01-10T03:39:46.093Z,223.30
2019-01-10T03:42:49.806Z,217.70
2019-01-10T03:45:53.511Z,240.73
2019-01-10T03:48:57.168Z,225.93
2019-01-10T03:52:00.852Z,226.67
2019-01-10T03:55:04.625Z,224.80
2019-01-10T03:58:08.325Z,234.03
2019-01-10T04:01:11.997Z,227.90
2019-01-10T04:04:15.713Z,243.63
2019-01-10T04:07:19.464Z,236.93
2019-01-10T04:10:23.141Z,254.00
2019-01-10T04:13:26.857Z,244.17
2019-01-10T04:16:30.527Z,253.73
2019-01-10T04:19:34.213Z,247.43
2019-01-10T04:22:37.856Z,253.93
2019-01-10T04:25:42.931Z,247.23
2019-01-10T04:28:46.980Z,247.33
2019-01-10T04:31:50.696Z,245.73
2019-01-10T04:34:54.367Z,243.13
2019-01-10T04:37:58.057Z,246.23
2019-01-10T04:41:01.745Z,251.13
2019-01-10T04:44:07.300Z,256.13
2019-01-10T04:47:10.765Z,257.03
2019-01-10T04:50:15.235Z,264.80
2019-01-10T04:53:18.947Z,252.30
2019-01-10T04:56:22.611Z,258.47
2019-01-10T04:59:26.295Z,264.57
2019-01-10T05:02:29.972Z,277.60
2019-01-10T05:05:33.669Z,285.50
2019-01-10T05:08:37.373Z,272.77
2019-01-10T05:11:41.039Z,274.27
2019-01-10T05:14:44.779Z,271.77
2019-01-10T05:17:48.429Z,260.07
2019-01-10T05:20:52.145Z,269.73
2019-01-10T05:23:55.797Z,279.73
2019-01-10T05:26:59.513Z,289.23
2019-01-10T05:30:03.571Z,270.10
2019-01-10T05:33:07.252Z,265.23
2019-01-10T05:36:10.961Z,269.87
2019-01-10T05:39:14.611Z,260.60
2019-01-10T05:42:18.296Z,249.53
2019-01-10T05:45:22.030Z,270.63
2019-01-10T05:48:25.709Z,258.50
2019-01-10T05:51:29.407Z,259.67
2019-01-10T05:54:33.099Z,294.67
2019-01-10T05:57:36.778Z,308.67
2019-01-10T06:00:40.488Z,294.40
2019-01-10T06:03:52.942Z,284.67
2019-01-10T06:06:49.528Z,292.03
2019-01-10T06:09:53.205Z,292.47
2019-01-10T06:12:56.893Z,284.70
2019-01-10T06:16:00.557Z,254.60
2019-01-10T06:19:04.196Z,249.23
2019-01-10T06:22:07.954Z,230.53
2019-01-10T06:25:11.624Z,213.37
2019-01-10T06:28:15.354Z,222.00
2019-01-10T06:31:19.064Z,200.23
2019-01-10T06:34:22.731Z,146.83
2019-01-10T06:37:26.445Z,136.40
2019-01-10T06:40:30.133Z,118.37
2019-01-10T06:43:33.855Z,124.07
2019-01-10T06:46:37.519Z,107.77
2019-01-10T06:49:41.222Z,118.30
2019-01-10T06:52:44.885Z,120.57
2019-01-10T06:55:48.567Z,110.43
2019-01-10T06:58:52.280Z,107.33
2019-01-10T07:01:55.950Z,105.43
2019-01-10T07:04:59.663Z,114.73
2019-01-10T07:08:03.316Z,107.33
2019-01-10T07:11:07.009Z,109.87
2019-01-10T07:14:10.673Z,108.60
2019-01-10T07:17:15.939Z,110.10
2019-01-10T07:20:19.842Z,105.07
2019-01-10T07:23:23.544Z,119.23
2019-01-10T07:26:27.202Z,119.33
2019-01-10T07:29:30.891Z,116.37
2019-01-10T07:32:34.569Z,119.70
2019-01-10T07:35:38.241Z,111.97
2019-01-10T07:38:41.906Z,110.47
2019-01-10T07:41:45.606Z,101.57
2019-01-10T07:44:49.340Z,108.73
2019-01-10T07:47:52.979Z,100.97
2019-01-10T07:50:56.686Z,110.77
2019-01-10T07:54:00.375Z,133.23
2019-01-10T07:57:04.137Z,115.97
2019-01-10T08:00:16.732Z,100.23
2019-01-10T08:03:20.403Z,117.10
2019-01-10T08:06:24.082Z,124.87
2019-01-10T08:09:27.830Z,104.97
2019-01-10T08:12:31.497Z,99.73
2019-01-10T08:15:35.235Z,101.50
2019-01-10T08:18:38.950Z,102.30
2019-01-10T08:21:42.618Z,117.50
2019-01-10T08:24:46.287Z,124.73
2019-01-10T08:27:49.963Z,114.87
2019-01-10T08:30:53.645Z,114.17
2019-01-10T08:33:57.311Z,105.33
2019-01-10T08:37:01.008Z,116.50
2019-01-10T08:40:06.414Z,115.23
2019-01-10T08:43:11.788Z,125.80
2019-01-10T08:46:15.577Z,118.87
2019-01-10T08:49:19.228Z,113.83
2019-01-10T08:52:22.908Z,113.07
2019-01-10T08:55:26.580Z,120.23
2019-01-10T08:58:30.263Z,123.73
2019-01-10T09:01:33.915Z,126.43
2019-01-10T09:04:37.618Z,128.10
2019-01-10T09:07:41.311Z,113.90
2019-01-10T09:10:44.958Z,125.37
2019-01-10T09:13:48.649Z,125.80
2019-01-10T09:16:52.276Z,114.63
2019-01-10T09:19:55.970Z,111.97
2019-01-10T09:22:59.614Z,123.57
2019-01-10T09:26:03.495Z,112.33
2019-01-10T09:29:07.148Z,100.27
2019-01-10T09:32:10.835Z,103.00
2019-01-10T09:35:14.639Z,100.50
2019-01-10T09:38:18.295Z,94.73
2019-01-10T09:41:21.973Z,98.97
2019-01-10T09:44:25.762Z,108.07
2019-01-10T09:47:29.453Z,99.27
2019-01-10T09:50:33.114Z,84.07
2019-01-10T09:53:36.791Z,93.87
2019-01-10T09:56:40.510Z,85.27
2019-01-10T09:59:44.149Z,87.57
2019-01-10T10:02:47.833Z,87.37
2019-01-10T10:05:51.511Z,85.17
2019-01-10T10:08:55.178Z,86.23
2019-01-10T10:11:58.870Z,82.60
2019-01-10T10:15:02.561Z,82.83
2019-01-10T10:18:06.204Z,80.27
2019-01-10T10:21:09.898Z,74.27
2019-01-10T10:24:13.605Z,84.60
2019-01-10T10:27:17.234Z,73.97
2019-01-10T10:30:21.507Z,69.73
2019-01-10T10:33:25.347Z,70.33
2019-01-10T10:36:29.969Z,74.17
2019-01-10T10:39:33.810Z,72.20
2019-01-10T10:42:37.932Z,85.03
2019-01-10T10:45:41.986Z,82.40
2019-01-10T10:48:46.672Z,83.80
2019-01-10T10:51:50.497Z,79.00
2019-01-10T10:54:56.699Z,91.97
2019-01-10T10:58:00.653Z,85.70
2019-01-10T11:01:06.026Z,98.67
2019-01-10T11:04:09.659Z,94.97
2019-01-10T11:07:13.364Z,97.80
2019-01-10T11:10:18.847Z,103.23
2019-01-10T11:13:22.471Z,107.33
2019-01-10T11:16:26.168Z,112.47
2019-01-10T11:19:29.859Z,101.87
2019-01-10T11:22:33.531Z,103.50
2019-01-10T11:25:37.208Z,102.70
2019-01-10T11:28:40.854Z,107.67
2019-01-10T11:31:44.595Z,109.77
2019-01-10T11:34:48.228Z,107.60
2019-01-10T11:37:51.916Z,108.63
2019-01-10T11:40:55.610Z,104.07
2019-01-10T11:43:59.454Z,111.43
2019-01-10T11:47:03.211Z,111.57
2019-01-10T11:50:10.279Z,123.70
2019-01-10T11:53:13.955Z,134.73
2019-01-10T11:56:17.636Z,135.70
2019-01-10T11:59:21.323Z,134.43
2019-01-10T12:02:24.958Z,137.60
2019-01-10T12:05:28.668Z,143.23
2019-01-10T12:08:32.328Z,205.93
2019-01-10T12:11:38.197Z,147.00
2019-01-10T12:14:41.403Z,228.60
2019-01-10T12:17:45.056Z,199.77
2019-01-10T12:20:48.738Z,216.40
2019-01-10T12:23:52.419Z,172.07
2019-01-10T12:26:56.107Z,160.23
2019-01-10T12:29:59.757Z,163.47
2019-01-10T12:33:03.715Z,165.37
2019-01-10T12:36:07.631Z,147.03
2019-01-10T12:39:11.579Z,158.33
2019-01-10T12:42:15.580Z,152.73
2019-01-10T12:45:20.940Z,144.30
2019-01-10T12:48:24.876Z,152.83
2019-01-10T12:51:28.805Z,165.57
2019-01-10T12:54:32.766Z,154.40
2019-01-10T12:57:36.889Z,136.63
2019-01-10T13:00:40.857Z,139.53
2019-01-10T13:03:45.028Z,132.87
2019-01-10T13:06:49.017Z,144.73
2019-01-10T13:09:52.936Z,145.93
2019-01-10T13:12:57.050Z,136.43
2019-01-10T13:16:01.080Z,123.70
2019-01-10T13:19:05.074Z,133.20
2019-01-10T13:22:09.172Z,121.37
2019-01-10T13:25:18.481Z,134.50
2019-01-10T13:28:22.473Z,117.73
2019-01-10T13:31:26.448Z,125.33
2019-01-10T13:34:30.435Z,134.07
2019-01-10T13:37:34.555Z,134.27
2019-01-10T13:40:38.560Z,140.10
2019-01-10T13:43:42.494Z,143.63
2019-01-10T13:46:55.410Z,160.83
2019-01-10T13:49:52.287Z,141.27
2019-01-10T13:52:56.311Z,110.03
2019-01-10T13:56:00.265Z,115.83
2019-01-10T13:59:04.214Z,125.40
2019-01-10T14:02:08.360Z,117.60
2019-01-10T14:05:12.326Z,106.83
2019-01-10T14:08:16.281Z,110.23
2019-01-10T14:11:20.266Z,120.37
2019-01-10T14:14:24.230Z,111.93
2019-01-10T14:17:28.236Z,116.07
2019-01-10T14:20:32.250Z,111.93
2019-01-10T14:23:36.315Z,108.00
2019-01-10T14:26:40.273Z,108.20
2019-01-10T14:29:44.340Z,110.97
2019-01-10T14:32:48.315Z,111.13
2019-01-10T14:35:52.249Z,106.03
2019-01-10T14:38:56.275Z,101.90
2019-01-10T14:42:00.262Z,102.10
2019-01-10T14:45:05.389Z,105.03
2019-01-10T14:48:09.360Z,111.80
2019-01-10T14:51:13.345Z,108.20
2019-01-10T14:54:17.402Z,111.07
2019-01-10T14:57:21.464Z,112.23
2019-01-10T15:00:25.383Z,124.43
2019-01-10T15:03:29.444Z,123.07
2019-01-10T15:06:33.465Z,114.43
2019-01-10T15:09:37.447Z,123.57
2019-01-10T15:12:42.023Z,123.03
2019-01-10T15:15:46.026Z,120.33
2019-01-10T15:18:50.180Z,117.90
2019-01-10T15:21:54.323Z,121.73
2019-01-10T15:24:58.467Z,132.90
2019-01-10T15:28:02.496Z,133.60
2019-01-10T15:31:06.695Z,141.67
2019-01-10T15:34:10.630Z,125.00
2019-01-10T15:37:14.800Z,112.67
2019-01-10T15:40:27.146Z,130.67
2019-01-10T15:43:31.221Z,123.90
2019-01-10T15:46:35.151Z,126.60
2019-01-10T15:49:39.209Z,153.43
2019-01-10T15:52:43.537Z,146.33
2019-01-10T15:55:47.832Z,148.23
2019-01-10T15:58:51.825Z,138.90
2019-01-10T16:01:55.875Z,171.17
2019-01-10T16:05:00.217Z,182.53
2019-01-10T16:08:04.523Z,151.27
2019-01-10T16:11:08.860Z,137.33
2019-01-10T16:14:13.281Z,128.00
2019-01-10T16:17:17.661Z,139.50
2019-01-10T16:20:21.951Z,150.57
2019-01-10T16:23:26.279Z,142.17
2019-01-10T16:26:30.623Z,163.63
2019-01-10T16:29:34.919Z,161.63
2019-01-10T16:32:39.274Z,174.47
2019-01-10T16:35:43.585Z,140.50
2019-01-10T16:38:47.925Z,142.70
2019-01-10T16:41:52.257Z,143.43
2019-01-10T16:44:57.179Z,138.63
2019-01-10T16:48:01.505Z,150.70
2019-01-10T16:51:05.867Z,150.83
2019-01-10T16:54:10.226Z,148.13
2019-01-10T16:57:14.555Z,155.77
2019-01-10T17:00:27.555Z,141.03
2019-01-10T17:03:31.878Z,139.47
2019-01-10T17:06:36.233Z,158.23
2019-01-10T17:09:41.662Z,145.23
2019-01-10T17:12:46.355Z,146.50
2019-01-10T17:15:53.526Z,139.67
2019-01-10T17:18:57.048Z,154.60
2019-01-10T17:22:01.398Z,167.40
2019-01-10T17:25:08.840Z,143.37
2019-01-10T17:28:12.880Z,156.10
2019-01-10T17:31:17.215Z,163.07
2019-01-10T17:34:21.617Z,124.80
2019-01-10T17:37:25.976Z,145.27
2019-01-10T17:40:30.759Z,130.30
2019-01-10T17:43:35.172Z,167.87
2019-01-10T17:46:39.589Z,143.47
2019-01-10T17:49:44.390Z,112.47
2019-01-10T17:52:48.739Z,103.33
2019-01-10T17:55:53.082Z,78.00
2019-01-10T17:58:57.487Z,95.40
2019-01-10T18:02:01.831Z,99.60
2019-01-10T18:05:06.376Z,150.67
2019-01-10T18:08:11.980Z,116.80
2019-01-10T18:11:16.375Z,116.83
2019-01-10T18:14:20.716Z,124.20
2019-01-10T18:17:25.092Z,128.63
2019-01-10T18:20:32.235Z,110.67
2019-01-10T18:23:36.543Z,99.57
2019-01-10T18:26:40.861Z,105.90
2019-01-10T18:29:45.235Z,103.13
2019-01-10T18:32:49.593Z,84.73
2019-01-10T18:35:55.265Z,90.40
2019-01-10T18:38:59.676Z,85.97
2019-01-10T18:42:05.527Z,92.13
2019-01-10T18:45:21.582Z,81.90
2019-01-10T18:48:26.045Z,77.97
2019-01-10T18:51:30.409Z,90.27
2019-01-10T18:54:34.742Z,76.90
2019-01-10T18:57:39.125Z,89.77
2019-01-10T19:00:43.406Z,86.30
2019-01-10T19:03:47.790Z,97.37
2019-01-10T19:06:52.170Z,83.50
2019-01-10T19:09:56.535Z,97.33
2019-01-10T19:13:00.890Z,95.07
2019-01-10T19:16:05.232Z,100.57
2019-01-10T19:19:09.576Z,117.03
2019-01-10T19:22:13.866Z,123.63
2019-01-10T19:25:18.220Z,113.50
2019-01-10T19:28:22.543Z,91.73
2019-01-10T19:31:26.897Z,85.97
2019-01-10T19:34:31.312Z,100.23
2019-01-10T19:37:38.743Z,94.60
2019-01-10T19:40:43.091Z,94.53
2019-01-10T19:43:47.436Z,94.00
2019-01-10T19:46:51.792Z,104.30
2019-01-10T19:49:58.673Z,114.17
2019-01-10T19:53:02.008Z,114.67
2019-01-10T19:56:06.410Z,106.23
2019-01-10T19:59:10.766Z,115.03
2019-01-10T20:02:15.078Z,115.00
2019-01-10T20:05:19.486Z,108.63
2019-01-10T20:08:23.788Z,97.67
2019-01-10T20:11:28.114Z,118.80
2019-01-10T20:14:32.446Z,119.43
2019-01-10T20:17:36.809Z,111.93
2019-01-10T20:20:41.247Z,129.50
2019-01-10T20:23:45.548Z,118.07
2019-01-10T20:26:50.015Z,113.63
2019-01-10T20:29:54.319Z,117.07
2019-01-10T20:32:58.740Z,123.87
2019-01-10T20:36:04.522Z,155.40
2019-01-10T20:39:08.955Z,138.00
2019-01-10T20:42:13.284Z,127.20
2019-01-10T20:45:17.675Z,112.80
2019-01-10T20:48:22.580Z,115.23
2019-01-10T20:51:27.026Z,95.67
2019-01-10T20:54:31.408Z,125.67
2019-01-10T20:57:35.824Z,104.10
2019-01-10T21:00:41.136Z,118.93
2019-01-10T21:03:45.563Z,113.83
2019-01-10T21:06:49.875Z,123.40
2019-01-10T21:09:54.203Z,120.17
2019-01-10T21:12:59.095Z,133.70
2019-01-10T21:16:06.349Z,133.20
2019-01-10T21:19:10.454Z,151.50
2019-01-10T21:22:14.763Z,117.00
2019-01-10T21:25:19.125Z,123.80
2019-01-10T21:28:24.448Z,102.43
2019-01-10T21:31:29.035Z,125.30
2019-01-10T21:34:33.340Z,118.57
2019-01-10T21:37:37.680Z,126.63
2019-01-10T21:40:41.994Z,116.37
2019-01-10T21:43:46.352Z,153.83
2019-01-10T21:46:50.686Z,113.53
2019-01-10T21:49:54.992Z,122.20
2019-01-10T21:52:59.379Z,112.30
2019-01-10T21:56:03.134Z,112.70
2019-01-10T21:59:06.835Z,104.80
2019-01-10T22:02:10.526Z,100.87
2019-01-10T22:05:14.229Z,95.53
2019-01-10T22:08:17.930Z,104.53
2019-01-10T22:11:21.687Z,109.23
2019-01-10T22:14:25.396Z,117.27
2019-01-10T22:17:29.121Z,98.20
2019-01-10T22:20:32.761Z,99.87
2019-01-10T22:23:36.442Z,103.73
2019-01-10T22:26:40.612Z,99.07
2019-01-10T22:29:44.295Z,112.07
2019-01-10T22:32:48.095Z,109.53
2019-01-10T22:35:51.805Z,104.60
2019-01-10T22:38:55.451Z,123.23
2019-01-10T22:41:59.154Z,119.53
2019-01-10T22:45:02.811Z,116.60
2019-01-10T22:48:06.509Z,113.57
2019-01-10T22:51:10.160Z,114.93
2019-01-10T22:54:13.856Z,115.50
2019-01-10T22:57:17.531Z,119.10
2019-01-10T23:00:54.415Z,147.63
2019-01-10T23:03:58.074Z,125.47
2019-01-10T23:07:01.887Z,112.90
2019-01-10T23:10:08.079Z,116.77
2019-01-10T23:13:11.728Z,119.37
2019-01-10T23:16:18.496Z,115.93
2019-01-10T23:19:22.167Z,118.33
2019-01-10T23:22:25.927Z,114.37
2019-01-10T23:25:29.550Z,121.00
2019-01-10T23:28:37.676Z,117.83
2019-01-10T23:31:41.309Z,117.37
2019-01-10T23:34:46.516Z,104.10
2019-01-10T23:37:50.272Z,122.80
2019-01-10T23:40:53.989Z,115.13
2019-01-10T23:43:57.632Z,118.13
2019-01-10T23:47:01.322Z,102.40
2019-01-10T23:50:06.574Z,116.53
2019-01-10T23:53:10.395Z,94.23
2019-01-10T23:56:14.093Z,113.63
2019-01-10T23:59:17.780Z,108.60
